Time;durP1;ratioP1;P1;durP2;ratioP2;P2;SDS_P1;SDS_P2;PMS_P1;PMS_P2;Temp;Humidity;BMP_temperature;BMP_pressure;BME280_temperature;BME280_humidity;BME280_pressure;Samples;Min_cycle;Max_cycle;Signal;HPM_P1;HPM_P2
2022/10/29 02:59:48;;;;;;;13.65;3.92;;;;;;;15.37;63.06;97357.97;4730943;30;20107;-79
2022/10/29 03:02:16;;;;;;;10.73;3.45;;;;;;;15.38;63.17;97354.34;4719052;30;20544;-79
2022/10/29 03:04:44;;;;;;;10.32;3.85;;;;;;;15.37;63.15;97352.72;4719935;30;20578;-78
2022/10/29 03:07:12;;;;;;;7.68;2.95;;;;;;;15.36;63.03;97351.09;4719836;30;20116;-77
2022/10/29 03:09:40;;;;;;;7.90;3.70;;;;;;;15.35;63.10;97347.66;4719528;30;20072;-79
2022/10/29 03:12:08;;;;;;;9.82;3.22;;;;;;;15.34;62.78;97346.03;4719828;30;20382;-78
2022/10/29 03:14:36;;;;;;;16.50;4.13;;;;;;;15.31;63.18;97343.00;4719331;30;20060;-78
2022/10/29 03:17:05;;;;;;;9.23;3.72;;;;;;;15.29;63.17;97339.75;4719893;30;20077;-79
2022/10/29 03:19:33;;;;;;;16.90;2.90;;;;;;;15.29;63.11;97345.00;4719310;30;20064;-79
2022/10/29 03:22:01;;;;;;;5.60;2.70;;;;;;;15.31;63.64;97343.81;4719737;30;20080;-79
2022/10/29 03:24:29;;;;;;;10.15;3.08;;;;;;;15.34;62.75;97342.59;4719663;30;20049;-79
2022/10/29 03:26:57;;;;;;;12.65;3.95;;;;;;;15.33;63.00;97343.63;4719581;30;20140;-78
2022/10/29 03:29:24;;;;;;;10.07;3.78;;;;;;;15.32;63.18;97340.16;4719413;30;20067;-78
2022/10/29 03:31:52;;;;;;;9.68;3.20;;;;;;;15.33;63.09;97335.72;4719288;30;20068;-78
2022/10/29 03:34:22;;;;;;;12.02;3.60;;;;;;;15.34;63.22;97332.09;4719272;30;20060;-78
2022/10/29 03:36:50;;;;;;;8.70;3.50;;;;;;;15.36;62.69;97338.75;4719488;30;20505;-79
2022/10/29 03:39:18;;;;;;;6.78;3.13;;;;;;;15.41;63.84;97348.69;4719250;30;20104;-79
2022/10/29 03:41:46;;;;;;;8.88;3.80;;;;;;;15.47;63.71;97353.19;4726840;30;20107;-79
2022/10/29 03:44:14;;;;;;;10.10;4.55;;;;;;;15.52;63.78;97356.03;4728699;30;20096;-79
2022/10/29 03:46:42;;;;;;;11.27;4.65;;;;;;;15.53;63.81;97360.31;4720192;30;20057;-79
2022/10/29 03:49:09;;;;;;;9.57;3.72;;;;;;;15.49;63.75;97356.44;4719763;30;20049;-79
2022/10/29 03:51:39;;;;;;;12.27;4.10;;;;;;;15.47;64.01;97361.06;4719177;30;20151;-78
2022/10/29 03:54:07;;;;;;;5.97;3.78;;;;;;;15.47;64.39;97358.44;4718927;30;20056;-79
2022/10/29 03:56:35;;;;;;;10.82;4.25;;;;;;;15.49;64.83;97361.69;4718964;30;20415;-79
2022/10/29 03:59:07;;;;;;;8.63;4.45;;;;;;;15.53;65.04;97359.50;4718591;30;20524;-79
2022/10/29 04:01:39;;;;;;;7.00;3.97;;;;;;;15.54;63.90;97361.91;4718665;30;20504;-78
2022/10/29 04:04:13;;;;;;;9.73;3.35;;;;;;;15.55;64.09;97365.38;4718734;30;20064;-77
2022/10/29 04:06:46;;;;;;;9.93;4.13;;;;;;;15.55;63.72;97366.19;4718719;30;20092;-77
2022/10/29 04:09:19;;;;;;;8.52;3.50;;;;;;;15.56;64.28;97365.16;4717612;30;20053;-78
2022/10/29 04:11:51;;;;;;;13.23;4.50;;;;;;;15.58;63.67;97364.97;4718780;30;20089;-78
2022/10/29 04:14:25;;;;;;;8.35;3.78;;;;;;;15.58;64.26;97362.34;4718822;30;20059;-78
2022/10/29 04:16:57;;;;;;;7.95;3.63;;;;;;;15.61;64.20;97362.78;4718508;30;20057;-78
2022/10/29 04:22:39;;;;;;;8.93;4.50;;;;;;;15.64;64.64;97375.53;4718799;30;20144;-79
2022/10/29 04:25:34;;;;;;;10.80;5.10;;;;;;;15.64;63.61;97380.78;4717378;30;20414;-79
2022/10/29 04:28:30;;;;;;;11.05;3.88;;;;;;;15.61;63.65;97370.66;4717954;30;20056;-79
2022/10/29 04:31:20;;;;;;;13.60;4.18;;;;;;;15.61;63.79;97378.56;4718556;30;20072;-79
2022/10/29 04:33:57;;;;;;;11.38;3.75;;;;;;;15.62;63.34;97371.47;4718312;30;20476;-78
2022/10/29 04:40:15;;;;;;;10.15;3.63;;;;;;;15.66;63.05;97372.72;4717700;30;20061;-79
2022/10/29 04:43:03;;;;;;;12.48;4.30;;;;;;;15.66;63.17;97364.81;4718444;30;20061;-79
2022/10/29 04:45:37;;;;;;;7.38;3.88;;;;;;;15.65;63.05;97356.13;4717415;30;20065;-79
2022/10/29 04:48:26;;;;;;;11.73;3.70;;;;;;;15.66;62.79;97356.94;4717360;30;20465;-79
2022/10/29 04:51:05;;;;;;;12.18;3.30;;;;;;;15.65;62.65;97363.19;4717910;30;20057;-78
2022/10/29 04:53:43;;;;;;;8.45;3.53;;;;;;;15.64;62.65;97365.00;4718374;30;20060;-78
2022/10/29 05:05:21;;;;;;;11.73;3.75;;;;;;;15.71;62.74;97364.22;4751558;30;20055;-78
2022/10/29 05:07:49;;;;;;;;;;;;;;;15.75;62.47;97371.56;4753115;30;20052;-78
2022/10/29 05:10:17;;;;;;;6.47;3.47;;;;;;;15.77;62.78;97368.75;4752799;30;19926;-77
2022/10/29 05:12:45;;;;;;;7.13;4.15;;;;;;;15.76;63.02;97365.28;4753148;30;20143;-77
2022/10/29 05:15:16;;;;;;;12.27;4.47;;;;;;;15.74;63.00;97353.34;4752483;30;20489;-79
2022/10/29 05:17:44;;;;;;;13.25;4.05;;;;;;;15.75;63.17;97365.50;4752755;30;20095;-77
2022/10/29 05:20:11;;;;;;;10.43;3.80;;;;;;;15.73;62.83;97362.25;4752338;30;20060;-78
2022/10/29 05:22:41;;;;;;;14.25;4.05;;;;;;;15.74;63.28;97358.59;4753127;30;20131;-78
2022/10/29 05:25:16;;;;;;;9.77;3.75;;;;;;;15.73;63.03;97360.44;4752450;30;20142;-78
2022/10/29 05:27:46;;;;;;;7.72;3.35;;;;;;;15.74;62.92;97363.84;4752626;30;20101;-78
2022/10/29 05:30:15;;;;;;;11.40;4.22;;;;;;;15.73;63.10;97368.31;4752574;30;20067;-78
2022/10/29 05:32:44;;;;;;;14.10;3.83;;;;;;;15.72;62.92;97356.19;4741009;30;20059;-78
2022/10/29 05:35:13;;;;;;;18.90;3.95;;;;;;;15.70;62.85;97359.97;4738180;30;20503;-77
2022/10/29 05:37:43;;;;;;;8.93;3.45;;;;;;;15.68;63.25;97356.72;4752464;30;20159;-78
2022/10/29 05:40:14;;;;;;;8.40;3.53;;;;;;;15.70;63.70;97362.59;4751867;30;20063;-78
2022/10/29 05:42:43;;;;;;;12.73;4.07;;;;;;;15.73;64.01;97359.63;4752423;30;20056;-79
2022/10/29 05:45:18;;;;;;;8.47;3.77;;;;;;;15.75;63.67;97360.22;4752514;30;20059;-79
2022/10/29 05:47:48;;;;;;;13.02;4.03;;;;;;;15.77;63.78;97359.03;4752003;30;20320;-78
2022/10/29 05:50:20;;;;;;;9.90;3.03;;;;;;;15.79;63.39;97356.22;4737865;30;20084;-79
2022/10/29 05:52:57;;;;;;;9.77;3.13;;;;;;;15.78;63.46;97354.56;4734633;30;20526;-79
2022/10/29 05:55:33;;;;;;;8.15;3.63;;;;;;;15.76;63.25;97361.84;4735381;30;20140;-79
2022/10/29 05:58:10;;;;;;;11.82;3.83;;;;;;;15.75;63.66;97362.88;4734700;30;20109;-79
2022/10/29 06:00:45;;;;;;;11.10;3.53;;;;;;;15.74;63.19;97355.97;4733507;30;20148;-78
2022/10/29 06:03:20;;;;;;;15.30;4.53;;;;;;;15.74;62.99;97359.44;4733684;30;20057;-79
2022/10/29 06:09:07;;;;;;;9.35;3.90;;;;;;;15.77;63.17;97366.13;4749886;30;20059;-79
2022/10/29 06:11:38;;;;;;;13.55;4.60;;;;;;;15.78;63.07;97365.09;4751433;30;20055;-79
2022/10/29 06:14:06;;;;;;;15.60;3.80;;;;;;;15.80;63.10;97368.34;4767140;30;20135;-79
2022/10/29 06:16:34;;;;;;;9.25;3.42;;;;;;;15.80;63.21;97363.88;4766925;30;20550;-79
2022/10/29 06:19:02;;;;;;;10.18;4.15;;;;;;;15.80;62.83;97365.72;4767722;30;20138;-79
2022/10/29 06:21:29;;;;;;;7.75;3.08;;;;;;;15.78;63.21;97370.34;4767047;30;20063;-78
2022/10/29 06:23:57;;;;;;;8.88;3.90;;;;;;;15.77;63.12;97369.56;4766693;30;20064;-77
2022/10/29 06:26:26;;;;;;;8.35;4.30;;;;;;;15.76;63.27;97369.75;4766325;30;20056;-77
2022/10/29 06:28:53;;;;;;;9.07;2.85;;;;;;;15.74;62.99;97359.44;4768409;30;20450;-77
2022/10/29 06:31:21;;;;;;;8.85;3.42;;;;;;;15.71;63.21;97366.84;4776174;30;20056;-78
2022/10/29 06:33:48;;;;;;;9.02;3.88;;;;;;;15.71;63.29;97358.97;4775521;30;20052;-78
2022/10/29 06:36:16;;;;;;;10.73;3.45;;;;;;;15.74;63.74;97366.50;4766246;30;20491;-78
2022/10/29 06:38:43;;;;;;;14.93;4.47;;;;;;;15.72;63.83;97371.13;4770271;30;20062;-78
2022/10/29 06:41:11;;;;;;;12.20;4.40;;;;;;;15.70;63.89;97367.84;4750648;30;20056;-79
2022/10/29 06:43:40;;;;;;;10.60;4.53;;;;;;;15.71;64.21;97361.59;4754176;30;20508;-77
2022/10/29 06:46:08;;;;;;;8.27;4.05;;;;;;;15.74;66.74;97355.97;4755474;30;20059;-78
2022/10/29 06:48:35;;;;;;;12.07;4.65;;;;;;;15.75;64.89;97361.03;4757009;30;20059;-78
2022/10/29 06:51:03;;;;;;;15.73;4.75;;;;;;;15.70;64.62;97363.44;4754444;30;20064;-77
2022/10/29 06:53:30;;;;;;;13.30;4.05;;;;;;;15.68;64.49;97354.91;4753877;30;20542;-77
2022/10/29 06:55:59;;;;;;;8.80;3.35;;;;;;;15.68;64.04;97360.19;4754171;30;20056;-77
2022/10/29 06:58:26;;;;;;;13.30;3.83;;;;;;;15.67;63.85;97363.81;4754413;30;20063;-78
2022/10/29 07:00:55;;;;;;;11.73;3.53;;;;;;;15.65;63.91;97369.28;4745489;30;20057;-78
2022/10/29 07:03:27;;;;;;;8.48;3.50;;;;;;;15.65;63.69;97364.00;4746869;30;20087;-78
2022/10/29 07:05:56;;;;;;;14.02;4.93;;;;;;;15.66;63.45;97360.38;4755466;30;20067;-79
2022/10/29 07:08:24;;;;;;;10.50;3.45;;;;;;;15.66;63.56;97357.72;4754463;30;20060;-78
2022/10/29 07:13:33;;;;;;;7.05;3.05;;;;;;;15.76;63.79;97364.47;4843982;24;20059;-80
2022/10/29 07:16:02;;;;;;;10.80;3.63;;;;;;;15.83;63.19;97362.69;4786050;30;20044;-78
2022/10/29 07:18:31;;;;;;;15.57;4.35;;;;;;;15.91;63.50;97364.34;4776948;30;20051;-77
2022/10/29 07:21:01;;;;;;;10.02;3.80;;;;;;;15.98;63.18;97363.38;4790261;29;20129;-78
2022/10/29 07:23:29;;;;;;;15.13;4.35;;;;;;;16.05;62.97;97361.56;4790387;29;20134;-78
2022/10/29 07:26:04;;;;;;;12.18;3.78;;;;;;;16.15;62.93;97369.06;4792733;29;20075;-78
2022/10/29 07:28:37;;;;;;;9.95;4.03;;;;;;;16.23;62.83;97368.09;4760166;30;20055;-79
2022/10/29 07:31:29;;;;;;;9.48;3.35;;;;;;;16.33;63.60;97373.78;4792287;29;20418;-79
2022/10/29 07:33:59;;;;;;;14.13;3.42;;;;;;;16.45;63.65;97372.19;4780674;30;20070;-77
2022/10/29 07:36:26;;;;;;;8.40;4.13;;;;;;;16.57;62.39;97363.69;4792527;30;20051;-78
2022/10/29 07:44:22;;;;;;;13.77;3.53;;;;;;;16.88;60.59;97369.22;5590511;24;20055;-79
2022/10/29 07:46:51;;;;;;;10.13;3.85;;;;;;;16.97;59.67;97369.03;4807807;29;20059;-79
2022/10/29 07:49:20;;;;;;;9.20;3.65;;;;;;;17.05;59.44;97366.16;4808180;29;20055;-79
2022/10/29 07:51:48;;;;;;;11.52;3.50;;;;;;;17.12;59.38;97367.00;4808561;29;20467;-79
2022/10/29 07:54:16;;;;;;;8.18;3.28;;;;;;;17.25;59.21;97366.97;4807927;29;20141;-79
2022/10/29 08:04:27;;;;;;;8.00;3.78;;;;;;;17.89;58.45;97368.03;5265961;24;20062;-78
2022/10/29 08:06:55;;;;;;;8.98;3.35;;;;;;;18.05;57.93;97365.94;4807602;29;20545;-78
2022/10/29 08:09:22;;;;;;;9.95;4.05;;;;;;;18.20;57.06;97365.66;4807567;29;20051;-78
2022/10/29 08:11:50;;;;;;;12.50;2.97;;;;;;;18.35;56.92;97366.19;4808347;29;20051;-78
2022/10/29 08:14:18;;;;;;;9.57;3.30;;;;;;;18.56;56.03;97374.78;4807697;29;20424;-78
2022/10/29 08:16:49;;;;;;;10.52;3.38;;;;;;;18.74;55.76;97366.94;4807546;29;20055;-78
2022/10/29 08:19:17;;;;;;;11.18;3.13;;;;;;;18.94;55.20;97372.09;4807807;29;20061;-78
2022/10/29 08:32:51;;;;;;;5.57;2.50;;;;;;;20.39;51.96;97370.72;5330814;24;20119;-79
2022/10/29 08:35:19;;;;;;;12.20;3.28;;;;;;;20.75;50.74;97369.00;4807330;29;20055;-79
2022/10/29 08:37:47;;;;;;;9.70;2.63;;;;;;;21.10;50.11;97370.88;4807247;29;20129;-79
2022/10/29 08:48:37;;;;;;;8.82;3.55;;;;;;;22.43;46.84;97376.31;5531094;24;20153;-79
2022/10/29 08:51:15;;;;;;;8.68;3.33;;;;;;;22.59;45.83;97372.91;4802757;29;20511;-79
2022/10/29 08:53:50;;;;;;;9.55;2.88;;;;;;;22.71;46.55;97372.03;4789143;29;20134;-79
2022/10/29 08:56:47;;;;;;;6.43;3.10;;;;;;;22.85;44.98;97378.66;4788602;29;20134;-79
2022/10/29 08:59:19;;;;;;;12.82;2.97;;;;;;;23.08;44.87;97385.69;4787687;29;20055;-79
2022/10/29 09:01:52;;;;;;;10.50;3.00;;;;;;;23.36;44.65;97384.78;4788882;30;20065;-79
2022/10/29 09:04:29;;;;;;;13.23;3.45;;;;;;;23.75;43.10;97381.31;4788674;30;20055;-79
2022/10/29 09:07:21;;;;;;;13.80;2.75;;;;;;;24.20;42.88;97386.38;4788311;29;20055;-79
2022/10/29 09:10:03;;;;;;;7.45;2.40;;;;;;;24.84;41.35;97380.38;4788551;30;20051;-79
2022/10/29 09:13:05;;;;;;;10.65;2.97;;;;;;;25.53;39.50;97375.25;4789061;30;20055;-79
2022/10/29 09:27:01;;;;;;;11.80;3.20;;;;;;;28.15;35.91;97385.06;4789488;30;20057;-79
2022/10/29 09:30:10;;;;;;;9.88;2.80;;;;;;;28.58;35.11;97374.66;4783845;29;20062;-79
2022/10/29 09:47:05;;;;;;;11.20;2.92;;;;;;;30.35;31.49;97360.75;4788070;29;20468;-79
2022/10/29 09:49:51;;;;;;;9.25;2.80;;;;;;;30.25;31.69;97360.88;4789201;29;20127;-79
2022/10/29 09:52:22;;;;;;;8.80;2.67;;;;;;;30.22;31.68;97354.19;4788668;30;20441;-79
2022/10/29 09:54:52;;;;;;;8.88;3.08;;;;;;;30.05;32.18;97351.22;4788598;30;20055;-79
2022/10/29 09:57:22;;;;;;;7.70;3.10;;;;;;;29.83;32.27;97355.25;4788188;30;20408;-79
2022/10/29 09:59:53;;;;;;;12.73;3.15;;;;;;;29.66;32.72;97354.88;4788159;30;20051;-79
2022/10/29 10:02:28;;;;;;;7.85;2.88;;;;;;;29.46;33.18;97354.03;4788204;29;20058;-79
2022/10/29 10:05:01;;;;;;;12.80;3.17;;;;;;;29.32;33.03;97353.09;4788042;30;20064;-79
2022/10/29 10:07:28;;;;;;;5.70;2.50;;;;;;;29.24;33.82;97342.97;4787245;30;20077;-80
2022/10/29 10:09:58;;;;;;;12.57;3.20;;;;;;;29.24;33.44;97346.47;4787703;29;20059;-79
2022/10/29 10:12:27;;;;;;;11.43;2.83;;;;;;;29.24;33.49;97337.59;4791348;30;20284;-79
2022/10/29 10:15:03;;;;;;;8.15;2.60;;;;;;;29.32;32.91;97345.03;4790481;30;20112;-79
2022/10/29 10:17:54;;;;;;;7.05;2.70;;;;;;;29.48;33.39;97338.41;4790546;30;20057;-79
2022/10/29 10:20:28;;;;;;;8.07;2.70;;;;;;;29.97;32.22;97339.97;4790477;30;20090;-80
2022/10/29 10:22:56;;;;;;;9.25;3.28;;;;;;;30.95;30.88;97327.81;4791047;30;20344;-79
2022/10/29 10:25:32;;;;;;;12.98;3.70;;;;;;;32.19;29.40;97332.44;4791158;29;20522;-83
2022/10/29 10:28:03;;;;;;;9.10;2.95;;;;;;;33.31;26.98;97330.81;4791240;30;20427;-81
2022/10/29 10:30:31;;;;;;;9.38;2.75;;;;;;;34.29;26.32;97323.41;4791557;30;20051;-81
2022/10/29 10:33:22;;;;;;;8.38;2.72;;;;;;;35.08;25.43;97327.63;4792831;29;20055;-81
2022/10/29 10:35:50;;;;;;;8.43;2.70;;;;;;;35.81;24.31;97324.00;4792851;30;20070;-81
2022/10/29 10:38:18;;;;;;;8.27;2.30;;;;;;;36.31;23.15;97325.91;4791992;30;20055;-82
2022/10/29 10:40:54;;;;;;;12.35;3.10;;;;;;;36.83;23.03;97328.16;4792395;30;20066;-81
2022/10/29 10:43:25;;;;;;;12.18;2.92;;;;;;;37.59;21.90;97317.88;4791989;30;20467;-79
2022/10/29 10:45:56;;;;;;;12.88;2.55;;;;;;;38.19;21.26;97314.63;4790119;30;20051;-80
2022/10/29 10:48:27;;;;;;;7.40;2.75;;;;;;;38.63;20.39;97312.75;4789616;29;20054;-80
2022/10/29 10:51:23;;;;;;;4.60;2.42;;;;;;;38.85;21.38;97314.13;4789713;30;20056;-79
2022/10/29 10:53:51;;;;;;;11.05;3.55;;;;;;;38.99;20.70;97307.47;4789982;30;20055;-79
2022/10/29 10:56:21;;;;;;;9.48;2.55;;;;;;;39.14;19.95;97318.41;4789930;30;20089;-79
2022/10/29 10:59:01;;;;;;;10.00;2.75;;;;;;;39.31;19.59;97308.25;4789624;30;20063;-79
2022/10/29 11:01:34;;;;;;;6.97;2.63;;;;;;;39.19;19.50;97300.97;4789635;30;20063;-79
2022/10/29 11:04:11;;;;;;;10.68;2.97;;;;;;;39.49;19.67;97297.78;4789956;30;20062;-79
2022/10/29 11:06:41;;;;;;;10.05;2.65;;;;;;;40.19;19.17;97296.19;4790547;30;20059;-82
2022/10/29 11:09:15;;;;;;;8.88;3.03;;;;;;;40.84;18.02;97299.06;4791559;30;20059;-82
2022/10/29 11:11:45;;;;;;;7.85;2.50;;;;;;;41.32;17.55;97302.22;4792305;30;20067;-82
2022/10/29 11:14:17;;;;;;;7.65;2.72;;;;;;;41.65;16.83;97303.53;4791900;30;20055;-82
2022/10/29 11:16:48;;;;;;;8.25;2.60;;;;;;;41.85;17.31;97297.94;4791545;30;20058;-82
2022/10/29 11:19:23;;;;;;;9.77;2.70;;;;;;;41.90;17.55;97295.66;4791092;30;20066;-82
2022/10/29 11:22:02;;;;;;;6.28;2.63;;;;;;;41.75;17.33;97297.41;4790595;29;20130;-82
2022/10/29 11:24:39;;;;;;;9.80;2.60;;;;;;;41.63;17.28;97303.09;4791154;30;20066;-82
2022/10/29 11:27:17;;;;;;;13.77;3.60;;;;;;;41.82;17.81;97306.91;4790418;30;20078;-82
2022/10/29 11:29:51;;;;;;;10.52;2.45;;;;;;;42.49;17.32;97296.03;4789914;30;20055;-81
2022/10/29 11:32:23;;;;;;;11.27;2.53;;;;;;;42.90;16.54;97301.53;4790400;30;20055;-82
2022/10/29 11:35:02;;;;;;;8.45;2.67;;;;;;;43.27;15.95;97295.22;4790677;30;20467;-82
2022/10/29 11:37:35;;;;;;;10.23;3.10;;;;;;;43.65;15.51;97290.41;4791056;30;20438;-82
2022/10/29 11:40:09;;;;;;;14.52;2.47;;;;;;;43.91;15.35;97283.88;4790035;30;20055;-82
2022/10/29 11:42:38;;;;;;;7.55;3.35;;;;;;;43.95;14.99;97283.88;4789768;30;20058;-82
2022/10/29 11:45:12;;;;;;;8.43;2.85;;;;;;;44.02;15.14;97278.44;4790252;30;20070;-82
2022/10/29 11:47:58;;;;;;;9.57;2.90;;;;;;;44.35;14.97;97274.63;4789817;30;20059;-82
2022/10/29 11:50:38;;;;;;;12.07;2.95;;;;;;;44.65;13.27;97275.50;4790081;30;20055;-82
2022/10/29 11:53:21;;;;;;;9.57;3.00;;;;;;;44.83;13.23;97270.84;4789869;30;20116;-82
2022/10/29 11:56:00;;;;;;;15.07;2.90;;;;;;;45.12;13.47;97265.34;4789638;30;20072;-82
2022/10/29 11:58:34;;;;;;;7.80;2.45;;;;;;;45.40;13.33;97270.84;4790022;30;20047;-82
2022/10/29 12:01:15;;;;;;;7.72;2.42;;;;;;;45.48;12.25;97257.03;4789638;30;20082;-82
2022/10/29 12:04:01;;;;;;;14.40;5.43;;;;;;;45.24;13.11;97253.91;4789414;29;20503;-82
2022/10/29 12:06:39;;;;;;;8.85;3.20;;;;;;;44.74;12.96;97242.88;4792318;30;20059;-82
2022/10/29 12:09:35;;;;;;;14.35;5.10;;;;;;;43.80;14.21;97245.34;4792857;30;20074;-82
2022/10/29 12:12:11;;;;;;;11.88;4.05;;;;;;;42.32;15.34;97230.78;4791707;30;20059;-82
2022/10/29 12:14:44;;;;;;;15.07;3.83;;;;;;;40.77;16.61;97238.75;4791826;30;20055;-82
2022/10/29 12:17:16;;;;;;;10.23;3.00;;;;;;;39.55;17.79;97231.63;4791816;30;20066;-82
2022/10/29 12:19:50;;;;;;;10.32;2.85;;;;;;;38.54;18.82;97222.19;4790976;30;20510;-82
2022/10/29 12:22:28;;;;;;;9.82;2.60;;;;;;;37.68;20.08;97226.00;4791396;29;20051;-82
2022/10/29 12:25:11;;;;;;;7.47;3.08;;;;;;;36.88;20.52;97221.91;4790826;30;20486;-82
2022/10/29 12:27:45;;;;;;;10.18;2.80;;;;;;;36.22;21.64;97227.41;4791007;30;20059;-82
2022/10/29 12:30:16;;;;;;;10.82;2.85;;;;;;;35.68;22.25;97217.28;4790311;30;20055;-83
2022/10/29 12:32:52;;;;;;;12.52;2.83;;;;;;;35.21;23.12;97214.69;4790687;30;20063;-82
2022/10/29 12:35:27;;;;;;;12.88;3.67;;;;;;;34.73;22.86;97208.50;4788105;30;20416;-79
2022/10/29 12:38:16;;;;;;;10.52;3.22;;;;;;;34.27;23.94;97201.91;4787714;30;20142;-80
2022/10/29 12:40:45;;;;;;;7.63;2.22;;;;;;;33.91;23.82;97199.50;4787816;29;20055;-80
2022/10/29 12:43:19;;;;;;;8.52;2.58;;;;;;;33.63;24.43;97197.09;4787736;29;20055;-80
2022/10/29 12:45:54;;;;;;;9.50;2.83;;;;;;;33.37;24.43;97194.38;4787752;30;20055;-79
2022/10/29 12:48:52;;;;;;;7.68;3.05;;;;;;;33.07;24.74;97190.63;4787206;29;20124;-80
2022/10/29 12:51:24;;;;;;;7.82;2.33;;;;;;;32.82;25.29;97187.47;4787499;30;20059;-80
2022/10/29 12:54:12;;;;;;;9.45;3.10;;;;;;;32.63;25.20;97185.03;4787704;30;20561;-79
2022/10/29 12:56:40;;;;;;;11.00;2.45;;;;;;;32.49;25.35;97178.88;4787545;30;20055;-80
2022/10/29 12:59:44;;;;;;;10.77;3.17;;;;;;;32.22;25.78;97170.66;4787516;30;20055;-80
2022/10/29 13:02:24;;;;;;;10.27;2.88;;;;;;;31.97;25.53;97174.78;4749735;30;20056;-80
2022/10/29 13:05:15;;;;;;;14.82;3.10;;;;;;;31.71;26.88;97173.75;4781932;30;20059;-80
2022/10/29 13:08:18;;;;;;;10.52;3.35;;;;;;;31.49;26.91;97169.91;4788802;29;20051;-85
2022/10/29 13:10:53;;;;;;;11.35;3.13;;;;;;;31.27;27.16;97165.25;4788454;30;20506;-82
2022/10/29 13:13:37;;;;;;;7.60;2.85;;;;;;;31.09;27.96;97169.63;4788830;30;20062;-82
2022/10/29 13:16:13;;;;;;;7.38;2.90;;;;;;;30.92;28.05;97170.25;4789020;30;20106;-82
2022/10/29 13:18:55;;;;;;;9.00;3.15;;;;;;;30.81;28.45;97160.75;4788394;30;20050;-82
2022/10/29 13:21:55;;;;;;;11.63;2.78;;;;;;;30.70;28.15;97160.16;4788636;30;20066;-81
2022/10/29 13:24:23;;;;;;;11.63;3.30;;;;;;;30.57;28.17;97160.94;4788271;30;20063;-83
2022/10/29 13:27:01;;;;;;;12.63;2.97;;;;;;;30.44;28.46;97164.41;4788035;30;20055;-82
2022/10/29 13:29:43;;;;;;;16.73;3.22;;;;;;;30.30;28.93;97159.78;4787257;30;20063;-81
2022/10/29 13:32:28;;;;;;;9.82;2.50;;;;;;;30.15;29.38;97166.22;4787396;29;20051;-82
2022/10/29 13:34:58;;;;;;;12.38;3.30;;;;;;;30.03;29.12;97157.81;4787599;30;20124;-82
2022/10/29 13:38:15;;;;;;;8.88;3.17;;;;;;;29.93;30.08;97160.66;4787426;30;20427;-81
2022/10/29 13:41:12;;;;;;;8.68;2.50;;;;;;;29.85;29.86;97155.97;4787295;30;20086;-82
2022/10/29 13:43:43;;;;;;;13.13;3.63;;;;;;;29.75;30.46;97154.22;4787439;29;20059;-82
2022/10/29 13:46:33;;;;;;;9.35;3.30;;;;;;;29.68;30.29;97151.06;4787125;30;20055;-82
2022/10/29 13:49:06;;;;;;;13.55;2.80;;;;;;;29.61;30.84;97145.22;4787100;30;20065;-81
2022/10/29 13:51:42;;;;;;;8.68;2.85;;;;;;;29.53;30.94;97150.19;4787361;30;20051;-81
2022/10/29 13:54:18;;;;;;;10.93;2.78;;;;;;;29.44;31.09;97148.44;4787410;30;20490;-81
2022/10/29 13:56:50;;;;;;;9.52;3.10;;;;;;;29.36;31.66;97141.81;4787172;30;20400;-81
2022/10/29 13:59:22;;;;;;;;;;;;;;;29.36;30.97;97131.88;4787647;30;20059;-80
2022/10/29 14:02:02;;;;;;;12.50;3.28;;;;;;;29.23;31.55;97134.50;4787824;30;20392;-80
2022/10/29 14:04:36;;;;;;;9.68;3.15;;;;;;;29.12;32.08;97134.63;4787576;30;20434;-81
2022/10/29 14:07:11;;;;;;;8.00;2.78;;;;;;;29.02;31.87;97132.06;4787646;30;20434;-81
2022/10/29 14:09:43;;;;;;;10.32;3.25;;;;;;;28.91;31.93;97135.94;4787459;30;20128;-81
2022/10/29 14:12:17;;;;;;;10.43;2.95;;;;;;;28.82;32.26;97132.28;4790668;30;20108;-82
2022/10/29 14:14:54;;;;;;;11.32;3.17;;;;;;;28.71;32.00;97126.22;4791525;30;20056;-81
2022/10/29 14:17:22;;;;;;;16.42;3.83;;;;;;;28.60;32.19;97127.44;4790915;30;20059;-81
2022/10/29 14:19:51;;;;;;;9.20;3.05;;;;;;;28.51;32.85;97129.94;4788905;30;20071;-81
2022/10/29 14:22:35;;;;;;;7.47;2.97;;;;;;;28.41;35.25;97130.03;4789123;30;20059;-80
2022/10/29 14:25:19;;;;;;;15.65;3.25;;;;;;;28.30;36.13;97124.75;4788719;30;20071;-79
2022/10/29 14:27:46;;;;;;;9.90;3.22;;;;;;;28.22;37.03;97117.31;4788214;30;20063;-79
2022/10/29 14:30:19;;;;;;;10.13;2.85;;;;;;;28.13;37.96;97124.38;4788550;30;20055;-79
2022/10/29 14:32:47;;;;;;;8.75;2.80;;;;;;;28.04;38.09;97118.81;4788410;30;20055;-78
2022/10/29 14:35:16;;;;;;;10.93;3.40;;;;;;;27.92;38.93;97119.22;4788435;30;20059;-80
2022/10/29 14:37:46;;;;;;;8.85;3.15;;;;;;;27.81;39.24;97112.28;4788108;30;20059;-83
2022/10/29 14:40:19;;;;;;;7.55;2.58;;;;;;;27.72;39.86;97111.28;4788140;30;20430;-81
2022/10/29 14:42:52;;;;;;;6.97;3.45;;;;;;;27.60;40.55;97114.31;4787363;30;20061;-80
2022/10/29 14:45:24;;;;;;;7.90;3.10;;;;;;;27.47;41.56;97107.72;4786934;30;20507;-80
2022/10/29 14:47:55;;;;;;;8.57;3.50;;;;;;;27.36;41.66;97108.84;4786656;29;20149;-80
2022/10/29 14:50:24;;;;;;;13.05;3.45;;;;;;;27.24;42.38;97114.53;4786874;30;20062;-80
2022/10/29 14:52:55;;;;;;;8.68;3.08;;;;;;;27.11;42.65;97117.78;4804402;30;20035;-81
2022/10/29 14:55:27;;;;;;;8.25;3.45;;;;;;;26.97;43.08;97117.59;4804612;30;20059;-79
2022/10/29 14:58:03;;;;;;;8.18;3.47;;;;;;;26.84;43.06;97115.50;4789233;29;20066;-80
2022/10/29 15:00:35;;;;;;;9.00;3.75;;;;;;;26.69;43.52;97114.47;4790077;30;20055;-80
2022/10/29 15:03:05;;;;;;;7.07;3.20;;;;;;;26.56;43.64;97109.72;4790282;30;20055;-79
2022/10/29 15:05:35;;;;;;;8.73;3.33;;;;;;;26.45;43.92;97116.13;4789665;29;20059;-80
2022/10/29 15:12:00;;;;;;;10.10;3.67;;;;;;;26.15;44.18;97106.28;4790236;30;20229;-79
2022/10/29 15:25:22;;;;;;;14.05;3.50;;;;;;;25.44;45.63;97106.00;5407494;24;20054;-79
2022/10/29 15:27:51;;;;;;;10.98;2.90;;;;;;;25.31;45.56;97103.03;4809066;29;20415;-79
2022/10/29 15:30:20;;;;;;;5.18;2.83;;;;;;;25.19;46.15;97098.75;4808792;29;20080;-79
2022/10/29 15:32:48;;;;;;;6.72;3.40;;;;;;;25.11;46.41;97095.75;4808403;29;20051;-79
2022/10/29 15:35:20;;;;;;;8.40;2.90;;;;;;;25.03;46.60;97108.53;4808387;29;20066;-79
2022/10/29 15:37:50;;;;;;;10.93;3.33;;;;;;;24.93;47.11;97089.81;4808713;29;20054;-79
2022/10/29 15:40:23;;;;;;;8.05;3.72;;;;;;;24.82;47.21;97096.19;4808644;29;20063;-79
2022/10/29 15:42:52;;;;;;;8.10;3.10;;;;;;;24.72;47.45;97102.28;4808654;29;20066;-79
2022/10/29 15:45:25;;;;;;;8.95;4.07;;;;;;;24.63;47.85;97101.97;4808609;29;20421;-79
2022/10/29 15:47:57;;;;;;;8.05;3.22;;;;;;;24.52;48.06;97103.00;4808641;29;20059;-79
2022/10/29 15:50:34;;;;;;;10.88;4.13;;;;;;;24.41;48.28;97098.63;4808540;29;20059;-79
2022/10/29 15:53:04;;;;;;;11.73;3.95;;;;;;;24.31;48.52;97098.56;4808566;29;20058;-79
2022/10/29 15:55:36;;;;;;;9.82;3.75;;;;;;;24.18;49.09;97100.63;4808981;29;20104;-79
2022/10/29 15:58:06;;;;;;;10.00;4.03;;;;;;;24.07;49.21;97101.59;4808391;29;20058;-79
2022/10/29 16:04:22;;;;;;;9.95;3.75;;;;;;;23.92;49.30;97117.47;5626432;24;20086;-79
2022/10/29 16:06:50;;;;;;;10.60;3.90;;;;;;;23.83;48.94;97120.63;4808206;29;20421;-79
2022/10/29 16:09:20;;;;;;;12.82;3.67;;;;;;;23.78;49.74;97120.56;4807526;29;20055;-78
2022/10/29 16:23:09;;;;;;;10.73;4.35;;;;;;;23.42;50.60;97125.56;4770562;30;20058;-78
2022/10/29 16:25:38;;;;;;;8.40;3.60;;;;;;;23.33;50.73;97121.75;4772023;30;20189;-77
2022/10/29 16:28:06;;;;;;;9.00;3.42;;;;;;;23.25;50.82;97119.53;4771753;30;20060;-79
2022/10/29 16:36:01;;;;;;;12.90;4.30;;;;;;;23.07;50.78;97111.84;4770035;30;20545;-80
2022/10/29 16:39:01;;;;;;;10.38;3.97;;;;;;;22.98;51.20;97120.25;4771459;30;20055;-80
2022/10/29 16:41:49;;;;;;;7.43;4.40;;;;;;;22.90;51.14;97125.22;4770836;30;20052;-79
2022/10/29 16:44:31;;;;;;;13.98;4.03;;;;;;;22.81;51.66;97124.84;4757918;30;20052;-80
2022/10/29 16:47:26;;;;;;;11.95;3.70;;;;;;;22.74;51.19;97118.88;4769141;30;20523;-80
2022/10/29 16:50:20;;;;;;;12.43;4.63;;;;;;;22.65;51.50;97115.03;4771279;30;20064;-80
2022/10/29 16:53:07;;;;;;;10.38;4.35;;;;;;;22.56;51.37;97118.13;4770242;30;20055;-79
2022/10/29 16:55:54;;;;;;;7.55;3.50;;;;;;;22.51;51.74;97128.69;4770015;30;20192;-80